Time;durP1;ratioP1;P1;durP2;ratioP2;P2;SDS_P1;SDS_P2;PMS_P1;PMS_P2;Temp;Humidity;BMP_temperature;BMP_pressure;BME280_temperature;BME280_humidity;BME280_pressure;Samples;Min_cycle;Max_cycle;Signal;HPM_P1;HPM_P2
2023/05/10 04:32:24;;;;;;;;;0.00;0.00;;;;;12.25;78.16;100919.91;5054852;27;45425;-76
2023/05/10 04:34:51;;;;;;;;;2.00;0.00;;;;;12.30;78.41;100917.00;5070504;28;45429;-78
2023/05/10 04:37:16;;;;;;;;;0.00;0.00;;;;;12.31;78.27;100902.63;5075224;28;45402;-77
2023/05/10 04:39:42;;;;;;;;;2.00;0.00;;;;;12.48;78.97;100903.53;5075716;28;45445;-75
2023/05/10 04:42:07;;;;;;;;;1.50;0.00;;;;;12.51;78.29;100914.09;5051890;28;45572;-76
2023/05/10 04:44:33;;;;;;;;;0.00;0.00;;;;;12.55;77.72;100908.56;5056448;28;48067;-76
2023/05/10 04:46:58;;;;;;;;;0.00;0.00;;;;;12.49;77.67;100894.50;5073962;28;56034;-76
2023/05/10 04:49:24;;;;;;;;;0.25;0.25;;;;;12.54;77.99;100896.94;5075107;28;45569;-76
2023/05/10 04:51:50;;;;;;;;;0.75;0.75;;;;;12.57;77.72;100899.50;5074779;28;45430;-77
2023/05/10 04:54:15;;;;;;;;;0.00;0.00;;;;;12.61;77.95;100908.25;5056473;28;45974;-75
2023/05/10 04:56:40;;;;;;;;;0.00;0.00;;;;;12.58;78.16;100893.16;5074630;28;45318;-77
2023/05/10 04:59:06;;;;;;;;;0.00;0.00;;;;;12.63;77.85;100903.66;5056816;28;45531;-76
2023/05/10 05:01:33;;;;;;;;;1.00;1.00;;;;;12.61;79.45;100892.97;5074452;28;45469;-76
2023/05/10 05:03:59;;;;;;;;;0.00;0.00;;;;;12.51;79.12;100875.56;5066789;28;45430;-74
2023/05/10 05:06:24;;;;;;;;;0.00;0.00;;;;;12.57;79.36;100902.19;5055911;28;45343;-75
2023/05/10 05:08:50;;;;;;;;;0.00;0.00;;;;;12.52;79.72;100909.59;5054952;28;45481;-77
2023/05/10 05:11:16;;;;;;;;;2.00;0.25;;;;;12.42;79.88;100905.63;5054128;28;45453;-77
2023/05/10 05:13:41;;;;;;;;;0.25;0.25;;;;;12.44;80.15;100918.06;5054337;28;45354;-74
2023/05/10 05:16:07;;;;;;;;;1.00;1.00;;;;;12.41;80.02;100898.53;5036354;28;45347;-78
2023/05/10 05:18:32;;;;;;;;;0.00;0.00;;;;;12.47;79.85;100900.91;5054243;28;45426;-75
2023/05/10 05:20:57;;;;;;;;;2.00;0.00;;;;;12.44;80.00;100901.91;5054076;28;45489;-78
2023/05/10 05:23:24;;;;;;;;;0.00;0.00;;;;;12.44;80.69;100892.97;5055094;28;46148;-79
2023/05/10 05:25:52;;;;;;;;;0.00;0.00;;;;;12.25;79.92;100879.59;5037291;28;45326;-79
2023/05/10 05:28:17;;;;;;;;;2.00;0.50;;;;;12.29;80.32;100875.81;5056184;28;45274;-80
2023/05/10 05:30:42;;;;;;;;;1.00;1.00;;;;;12.24;80.11;100848.31;5055135;28;45281;-80
2023/05/10 05:33:08;;;;;;;;;2.00;1.00;;;;;12.66;79.79;100923.22;5041445;28;48375;-78
2023/05/10 05:35:33;;;;;;;;;3.00;1.00;;;;;12.66;80.13;100928.59;5074380;28;45601;-77
2023/05/10 05:37:58;;;;;;;;;1.25;1.00;;;;;12.69;80.06;100922.16;5075843;28;45461;-77
2023/05/10 05:40:24;;;;;;;;;1.25;1.25;;;;;12.75;79.77;100930.81;5077537;28;45642;-77
2023/05/10 05:42:49;;;;;;;;;1.25;1.25;;;;;12.68;79.88;100926.69;5039461;28;47482;-78
2023/05/10 05:45:15;;;;;;;;;2.00;2.00;;;;;12.68;80.22;100920.44;5058045;28;45303;-77
2023/05/10 05:47:41;;;;;;;;;2.50;1.00;;;;;12.72;80.14;100914.81;5057285;28;45445;-78
2023/05/10 05:50:06;;;;;;;;;2.25;2.25;;;;;12.84;79.87;100935.69;5057597;28;45572;-78
2023/05/10 05:52:32;;;;;;;;;1.75;1.75;;;;;12.79;80.43;100934.19;5057613;28;46147;-77
2023/05/10 05:54:57;;;;;;;;;1.25;1.25;;;;;12.83;81.08;100933.97;5073658;27;45560;-77
2023/05/10 05:57:22;;;;;;;;;1.00;1.00;;;;;12.73;80.89;100924.63;5094919;27;45615;-76
2023/05/10 05:59:48;;;;;;;;;4.00;1.00;;;;;12.79;81.62;100932.38;5086947;27;45274;-78
2023/05/10 06:02:13;;;;;;;;;2.00;2.00;;;;;12.93;81.31;100936.19;5055898;27;45502;-77
2023/05/10 06:04:38;;;;;;;;;4.00;3.00;;;;;12.97;81.53;100933.25;5056558;28;45493;-75
2023/05/10 06:07:04;;;;;;;;;2.00;2.00;;;;;12.96;81.11;100947.66;5054741;28;45406;-76
2023/05/10 06:09:29;;;;;;;;;1.00;1.00;;;;;12.88;81.82;100948.06;5056519;28;45351;-76
2023/05/10 06:11:54;;;;;;;;;2.00;2.00;;;;;12.82;82.68;100936.75;5056714;28;46133;-76
2023/05/10 06:14:20;;;;;;;;;4.75;4.00;;;;;12.85;83.42;100928.50;5057364;28;45247;-78
2023/05/10 06:16:46;;;;;;;;;3.00;3.00;;;;;12.99;84.38;100952.00;5056821;28;46243;-76
2023/05/10 06:19:11;;;;;;;;;2.25;2.25;;;;;12.88;83.78;100934.59;5057055;28;45324;-76
2023/05/10 06:21:36;;;;;;;;;3.25;3.25;;;;;12.98;83.42;100947.56;5056989;28;45890;-75
2023/05/10 06:24:02;;;;;;;;;2.00;2.00;;;;;12.98;83.88;100944.88;5057276;28;45256;-77
2023/05/10 06:26:28;;;;;;;;;2.75;1.00;;;;;12.88;83.61;100939.09;5056967;28;45515;-75
2023/05/10 06:28:53;;;;;;;;;0.50;0.50;;;;;12.93;83.43;100936.19;5057057;28;45540;-78
2023/05/10 06:31:18;;;;;;;;;2.00;2.00;;;;;12.94;83.27;100919.94;5056558;28;45516;-77
2023/05/10 06:33:44;;;;;;;;;3.75;2.00;;;;;13.09;82.91;100962.22;5063401;28;45248;-76
2023/05/10 06:36:11;;;;;;;;;2.00;2.00;;;;;12.98;83.40;100951.13;5077273;28;45390;-76
2023/05/10 06:38:37;;;;;;;;;4.25;3.00;;;;;12.97;82.92;100956.59;5077235;28;45496;-76
2023/05/10 06:41:02;;;;;;;;;1.00;1.00;;;;;12.94;82.71;100960.31;5071338;28;46088;-76
2023/05/10 06:43:28;;;;;;;;;3.25;3.25;;;;;12.93;82.76;100957.72;5056882;28;45413;-76
2023/05/10 06:45:54;;;;;;;;;3.50;3.50;;;;;12.96;83.19;100966.47;5056367;28;45508;-76
2023/05/10 06:48:19;;;;;;;;;2.00;2.00;;;;;13.02;83.71;100965.28;5056418;28;45573;-77
2023/05/10 06:50:44;;;;;;;;;3.00;3.00;;;;;12.96;83.68;100962.91;5055551;28;45372;-76
2023/05/10 06:53:10;;;;;;;;;3.00;3.00;;;;;12.92;83.79;100945.22;5038709;28;45235;-77
2023/05/10 06:55:35;;;;;;;;;4.75;3.00;;;;;13.07;83.51;100966.81;5056728;28;45287;-76
2023/05/10 06:58:01;;;;;;;;;4.00;2.75;;;;;13.06;82.93;100962.38;5038312;28;45936;-75
2023/05/10 07:00:27;;;;;;;;;3.75;3.75;;;;;13.13;83.28;100974.56;5037929;28;48503;-76
2023/05/10 07:02:52;;;;;;;;;4.25;4.00;;;;;13.16;83.34;100970.88;5056356;28;45386;-74
2023/05/10 07:05:18;;;;;;;;;5.00;4.50;;;;;13.27;82.71;100978.38;5056472;28;45201;-75
2023/05/10 07:07:43;;;;;;;;;4.00;4.00;;;;;13.23;82.77;100962.38;5056494;28;45470;-76
2023/05/10 07:10:09;;;;;;;;;2.25;2.00;;;;;13.34;82.69;100975.28;5056306;28;45578;-77
2023/05/10 07:12:34;;;;;;;;;4.00;3.00;;;;;13.37;82.29;100975.09;5055998;28;45365;-76
2023/05/10 07:15:00;;;;;;;;;3.00;2.25;;;;;13.36;82.51;100981.41;5056184;28;45363;-78
2023/05/10 07:17:25;;;;;;;;;3.75;2.75;;;;;13.38;82.03;100986.72;5055962;28;51592;-76
2023/05/10 07:19:50;;;;;;;;;3.00;3.00;;;;;13.27;82.68;100963.06;5073384;28;47044;-75
2023/05/10 07:22:16;;;;;;;;;4.00;4.00;;;;;13.40;82.73;100982.13;5076704;28;45360;-76
2023/05/10 07:24:42;;;;;;;;;4.25;4.25;;;;;13.34;82.92;100969.88;5076671;28;45376;-77
2023/05/10 07:27:08;;;;;;;;;4.50;3.50;;;;;13.36;83.09;100975.16;5076415;28;45559;-77
2023/05/10 07:29:34;;;;;;;;;3.00;3.00;;;;;13.40;82.53;100988.41;5075998;28;46057;-76
2023/05/10 07:32:00;;;;;;;;;3.00;3.00;;;;;13.39;82.75;100983.09;5075892;28;45346;-76
2023/05/10 07:34:25;;;;;;;;;2.00;2.00;;;;;13.41;82.88;100982.06;5075840;28;45386;-77
2023/05/10 07:36:51;;;;;;;;;4.50;2.00;;;;;13.47;82.57;100968.25;5076486;28;45227;-77
2023/05/10 07:39:16;;;;;;;;;4.00;4.00;;;;;13.56;83.08;100989.31;5076089;28;45512;-77
2023/05/10 07:41:42;;;;;;;;;6.75;4.75;;;;;13.37;83.18;100976.91;5052956;28;45181;-77
2023/05/10 07:44:07;;;;;;;;;5.50;5.50;;;;;13.25;83.30;100963.19;5076291;28;45518;-77
2023/05/10 07:46:33;;;;;;;;;3.00;3.00;;;;;13.42;83.61;100994.59;5057654;28;45504;-76
2023/05/10 07:48:58;;;;;;;;;6.00;6.00;;;;;13.38;83.45;100986.72;5075725;28;46076;-76
2023/05/10 07:51:23;;;;;;;;;5.00;5.00;;;;;13.34;83.97;100985.19;5076228;28;45366;-77
2023/05/10 07:53:49;;;;;;;;;3.75;3.75;;;;;13.36;83.85;100994.00;5076357;28;45453;-77
2023/05/10 07:56:32;;;;;;;;;3.50;3.50;;;;;13.24;83.73;100999.13;5076499;28;45343;-76
2023/05/10 07:59:01;;;;;;;;;4.00;4.00;;;;;13.20;83.96;100989.44;5076053;28;46152;-75
2023/05/10 08:01:30;;;;;;;;;5.25;3.25;;;;;13.16;83.99;100987.00;5075672;28;45409;-76
2023/05/10 08:03:56;;;;;;;;;4.75;3.00;;;;;13.25;84.30;100997.31;5075594;28;45488;-76
2023/05/10 08:06:22;;;;;;;;;4.00;2.00;;;;;13.28;83.53;100999.81;5075592;28;58251;-77
2023/05/10 08:08:50;;;;;;;;;5.00;4.00;;;;;13.18;84.25;100994.03;5075608;28;45594;-76
2023/05/10 08:11:20;;;;;;;;;3.00;3.00;;;;;13.09;83.18;100966.72;5075935;28;45398;-78
2023/05/10 08:13:46;;;;;;;;;3.50;3.00;;;;;13.14;83.81;100979.00;5075649;28;45353;-76
2023/05/10 08:16:11;;;;;;;;;3.00;3.00;;;;;13.34;83.50;101002.19;5075590;28;45531;-75
2023/05/10 08:18:37;;;;;;;;;4.75;4.75;;;;;13.40;83.08;100992.91;5075384;28;45437;-76
2023/05/10 08:21:03;;;;;;;;;4.50;2.75;;;;;13.35;82.93;100971.63;5075651;28;45272;-75
2023/05/10 08:23:28;;;;;;;;;2.00;2.00;;;;;13.52;82.14;100995.84;5075595;28;45311;-77
2023/05/10 08:25:53;;;;;;;;;3.25;3.25;;;;;13.42;82.65;100966.78;5057370;28;46381;-76
2023/05/10 08:28:19;;;;;;;;;2.50;2.50;;;;;13.57;81.46;100985.66;5075854;28;45626;-76
2023/05/10 08:30:44;;;;;;;;;6.00;2.00;;;;;13.57;81.68;100985.66;5075307;28;45370;-76
2023/05/10 08:33:09;;;;;;;;;3.50;2.00;;;;;13.67;80.90;101001.34;5075403;28;45366;-78
2023/05/10 08:35:35;;;;;;;;;1.00;1.00;;;;;13.76;80.72;101014.31;5075287;28;45653;-76
2023/05/10 08:38:00;;;;;;;;;2.00;2.00;;;;;13.84;81.36;101017.44;5075551;28;45310;-77
2023/05/10 08:40:26;;;;;;;;;2.75;2.75;;;;;13.92;80.69;101021.47;5074668;28;45479;-76
2023/05/10 08:43:21;;;;;;;;;3.00;3.00;;;;;13.93;80.93;101020.50;5055419;28;45402;-77
2023/05/10 08:45:49;;;;;;;;;4.75;3.00;;;;;13.91;79.66;101029.63;5037390;28;45579;-77
2023/05/10 08:48:15;;;;;;;;;2.50;2.00;;;;;13.84;79.53;101014.75;5054903;28;45273;-76
2023/05/10 08:50:42;;;;;;;;;2.00;2.00;;;;;14.01;80.42;101041.66;5054910;28;45423;-77
2023/05/10 08:53:13;;;;;;;;;3.75;3.75;;;;;14.11;80.11;101036.63;5055017;28;45465;-76
2023/05/10 08:55:40;;;;;;;;;4.75;3.00;;;;;14.11;79.95;101025.84;5036312;28;45358;-76
2023/05/10 08:58:06;;;;;;;;;3.00;3.00;;;;;14.24;79.28;101043.03;5054946;28;46667;-76
2023/05/10 09:00:32;;;;;;;;;3.00;3.00;;;;;14.34;78.25;101050.53;5058674;28;45272;-77
2023/05/10 09:02:58;;;;;;;;;2.00;2.00;;;;;14.32;78.17;101047.06;5060333;28;45489;-75
2023/05/10 09:05:23;;;;;;;;;7.00;3.00;;;;;14.32;76.85;101056.97;5060542;28;45262;-76
2023/05/10 09:07:49;;;;;;;;;5.25;4.00;;;;;14.33;77.61;101048.81;5056943;28;45568;-77
2023/05/10 09:10:15;;;;;;;;;4.25;3.00;;;;;14.32;76.89;101041.66;5054639;28;45380;-76
2023/05/10 09:12:41;;;;;;;;;4.00;4.00;;;;;14.48;76.96;101055.16;5054707;28;45339;-77
2023/05/10 09:15:09;;;;;;;;;5.00;4.75;;;;;14.57;77.06;101057.34;5054653;28;45455;-76
2023/05/10 09:17:34;;;;;;;;;8.75;7.00;;;;;14.63;76.93;101059.69;5055267;28;45288;-76
2023/05/10 09:20:02;;;;;;;;;6.75;5.50;;;;;14.73;76.81;101070.81;5055189;28;45378;-75
2023/05/10 09:22:27;;;;;;;;;5.75;5.75;;;;;14.69;76.75;101056.66;5056026;28;45526;-75
2023/05/10 09:25:15;;;;;;;;;1.00;1.00;;;;;14.76;75.92;101066.13;5055584;28;45553;-76
2023/05/10 09:27:44;;;;;;;;;6.25;6.00;;;;;14.82;76.02;101073.00;5054737;28;45433;-77
2023/05/10 09:30:10;;;;;;;;;5.75;4.75;;;;;14.91;76.66;101068.88;5055005;28;45235;-77
2023/05/10 09:32:41;;;;;;;;;6.75;4.75;;;;;14.90;74.84;101081.50;5054800;28;45323;-76
2023/05/10 09:35:11;;;;;;;;;4.00;4.00;;;;;14.94;75.18;101091.19;5072372;28;45327;-76
2023/05/10 09:37:41;;;;;;;;;4.50;4.50;;;;;14.91;74.09;101085.06;5074405;28;45445;-76
2023/05/10 09:40:07;;;;;;;;;6.00;5.00;;;;;14.88;74.82;101099.66;5074215;28;45480;-77
2023/05/10 09:42:34;;;;;;;;;10.00;5.25;;;;;14.92;75.00;101090.41;5056343;28;45370;-79
2023/05/10 09:45:04;;;;;;;;;7.00;7.00;;;;;14.97;74.00;101095.53;5053919;28;45473;-77
2023/05/10 09:47:32;;;;;;;;;6.25;4.75;;;;;15.07;73.59;101099.41;5053945;28;45509;-76
2023/05/10 09:50:02;;;;;;;;;5.50;5.50;;;;;15.06;73.71;101101.25;5054053;28;45390;-77
2023/05/10 09:52:28;;;;;;;;;9.00;6.00;;;;;15.11;72.96;101104.56;5054230;28;45342;-77
2023/05/10 09:54:54;;;;;;;;;8.25;5.50;;;;;15.04;72.44;101080.72;5054097;28;45516;-77
2023/05/10 09:57:21;;;;;;;;;8.25;5.75;;;;;15.20;73.06;101095.06;5053811;28;45476;-77
2023/05/10 09:59:47;;;;;;;;;5.75;5.75;;;;;15.32;71.97;101113.22;5053690;28;45446;-76
2023/05/10 10:02:13;;;;;;;;;9.75;7.00;;;;;15.32;71.73;101093.44;5053755;28;45362;-78
2023/05/10 10:04:40;;;;;;;;;5.00;3.25;;;;;15.46;71.04;101107.88;5054014;28;45568;-77
2023/05/10 10:07:06;;;;;;;;;8.25;5.00;;;;;15.43;71.18;101108.03;5053929;28;47062;-75
2023/05/10 10:09:32;;;;;;;;;5.00;5.00;;;;;15.42;70.71;101103.59;5061463;28;45354;-76
2023/05/10 10:11:58;;;;;;;;;10.00;5.75;;;;;15.31;70.47;101087.16;5073267;28;45524;-76
2023/05/10 10:14:24;;;;;;;;;5.25;5.25;;;;;15.17;70.88;101081.72;5073879;28;45661;-76
2023/05/10 10:16:53;;;;;;;;;7.25;6.00;;;;;15.27;71.62;101107.22;5073522;28;47077;-77
2023/05/10 10:19:20;;;;;;;;;6.75;4.00;;;;;15.35;70.55;101115.75;5073924;28;45414;-76
2023/05/10 10:21:47;;;;;;;;;6.25;6.25;;;;;15.34;69.92;101099.63;5073710;28;45497;-76
2023/05/10 10:24:12;;;;;;;;;9.00;7.00;;;;;15.40;70.55;101101.94;5073777;28;45346;-77
2023/05/10 10:26:40;;;;;;;;;10.00;7.75;;;;;15.24;70.33;101085.78;5077240;28;45910;-77
2023/05/10 10:29:39;;;;;;;;;8.50;7.25;;;;;15.35;69.93;101110.34;5077097;28;45332;-76
2023/05/10 10:32:29;;;;;;;;;8.25;5.25;;;;;15.28;69.13;101110.78;5077067;28;45470;-77
2023/05/10 10:34:56;;;;;;;;;3.25;1.00;;;;;15.28;69.06;101113.50;5077022;28;45379;-80
2023/05/10 10:37:21;;;;;;;;;10.75;6.25;;;;;15.19;69.15;101112.22;5058852;28;48359;-79
2023/05/10 10:39:48;;;;;;;;;10.00;8.00;;;;;15.21;69.44;101104.03;5059029;28;45401;-77
2023/05/10 10:42:14;;;;;;;;;9.00;8.25;;;;;15.23;70.02;101102.94;5061833;28;45491;-74
2023/05/10 10:44:40;;;;;;;;;12.50;6.75;;;;;15.25;69.80;101113.66;5038659;28;45354;-77
2023/05/10 10:47:11;;;;;;;;;6.25;6.25;;;;;15.31;68.64;101097.97;5056677;28;46062;-77
2023/05/10 10:49:42;;;;;;;;;8.00;6.00;;;;;15.23;68.26;101105.66;5056957;28;45360;-77
2023/05/10 10:52:34;;;;;;;;;7.00;4.50;;;;;15.27;68.10;101106.34;5054731;28;45447;-78
2023/05/10 10:55:01;;;;;;;;;7.50;5.00;;;;;15.29;68.35;101107.13;5077154;28;45261;-78
2023/05/10 10:57:29;;;;;;;;;6.00;6.00;;;;;15.17;68.60;101084.41;5060655;28;47034;-80
2023/05/10 11:00:24;;;;;;;;;6.50;6.50;;;;;15.49;67.50;101107.66;5077321;28;45405;-81
2023/05/10 11:03:06;;;;;;;;;9.25;6.50;;;;;15.48;67.43;101102.38;5058943;28;45342;-80
2023/05/10 11:05:42;;;;;;;;;5.75;5.75;;;;;15.61;67.46;101114.19;5078621;28;45540;-77
2023/05/10 11:08:28;;;;;;;;;5.25;5.25;;;;;15.52;66.45;101091.28;5076713;28;47099;-78
2023/05/10 11:11:03;;;;;;;;;7.00;5.00;;;;;15.72;67.10;101111.72;5078494;28;45198;-81
2023/05/10 11:13:34;;;;;;;;;6.00;5.00;;;;;15.83;66.00;101108.34;5060459;28;45319;-77
2023/05/10 11:16:19;;;;;;;;;5.00;4.50;;;;;15.73;65.64;101096.38;5074051;28;45404;-78
2023/05/10 11:19:12;;;;;;;;;3.50;3.50;;;;;15.89;65.17;101111.56;5063928;28;46437;-80
2023/05/10 11:22:01;;;;;;;;;6.00;5.00;;;;;15.95;65.82;101098.59;5062797;28;45478;-78
2023/05/10 11:24:27;;;;;;;;;3.50;3.50;;;;;15.87;65.35;101077.44;5070634;28;45622;-80
2023/05/10 11:26:53;;;;;;;;;9.00;4.25;;;;;16.05;65.50;101107.88;5065082;28;47087;-78
2023/05/10 11:29:19;;;;;;;;;8.00;5.25;;;;;16.12;64.53;101102.00;5072548;28;46112;-81
2023/05/10 11:31:46;;;;;;;;;6.50;4.50;;;;;16.21;64.24;101090.59;5067470;28;45467;-79
2023/05/10 11:34:22;;;;;;;;;4.00;4.00;;;;;16.25;63.84;101102.94;5072829;28;45581;-77
2023/05/10 11:36:53;;;;;;;;;7.25;5.00;;;;;16.06;63.15;101037.47;5072782;28;45555;-76
2023/05/10 11:39:19;;;;;;;;;4.50;4.00;;;;;16.35;62.07;101083.41;5053601;28;48216;-77
2023/05/10 11:41:48;;;;;;;;;8.25;6.00;;;;;16.49;61.91;101086.97;5065326;28;45303;-79
2023/05/10 11:44:13;;;;;;;;;8.25;7.25;;;;;16.68;62.78;101100.19;5066408;27;45479;-78
2023/05/10 11:46:38;;;;;;;;;8.50;4.75;;;;;16.89;61.52;101090.66;5070819;27;45473;-78
2023/05/10 11:49:06;;;;;;;;;6.50;4.00;;;;;17.03;60.85;101058.09;5075549;27;45949;-79
2023/05/10 11:51:35;;;;;;;;;7.50;5.25;;;;;17.15;59.49;101069.94;5068259;28;45527;-79
2023/05/10 11:54:04;;;;;;;;;7.00;3.00;;;;;17.50;60.42;101082.94;5064291;27;45493;-77
2023/05/10 11:56:32;;;;;;;;;8.25;5.25;;;;;17.70;59.40;101080.56;5067289;27;46993;-77
2023/05/10 11:58:58;;;;;;;;;10.50;7.00;;;;;17.88;58.76;101082.97;5064626;27;46239;-79
2023/05/10 12:01:24;;;;;;;;;6.00;4.50;;;;;17.99;56.41;101085.78;5065777;27;46257;-80
2023/05/10 12:03:52;;;;;;;;;5.00;5.00;;;;;18.18;56.26;101069.94;5077546;28;45438;-79
2023/05/10 12:06:19;;;;;;;;;9.50;7.00;;;;;18.47;56.59;101057.81;5067772;28;45516;-80
2023/05/10 12:08:46;;;;;;;;;8.75;7.00;;;;;18.65;55.65;101054.75;5073641;28;47427;-80
2023/05/10 12:11:16;;;;;;;;;4.50;4.50;;;;;18.79;52.68;101066.31;5090436;28;44850;-78
2023/05/10 12:13:46;;;;;;;;;6.00;5.00;;;;;19.07;53.01;101065.09;5086839;28;45306;-80
2023/05/10 12:16:25;;;;;;;;;7.25;5.50;;;;;19.45;51.78;101061.28;5080898;28;45474;-80
2023/05/10 12:18:52;;;;;;;;;6.00;4.75;;;;;19.52;50.28;101040.81;5069105;28;47679;-80
2023/05/10 12:21:19;;;;;;;;;6.00;4.75;;;;;19.49;49.93;101062.78;5078426;28;45277;-79
2023/05/10 12:23:50;;;;;;;;;6.25;5.00;;;;;18.91;51.17;101034.63;5075597;28;45314;-79
2023/05/10 12:26:16;;;;;;;;;4.75;4.75;;;;;18.83;51.99;101066.94;5075256;28;45581;-79
2023/05/10 12:28:41;;;;;;;;;4.00;3.75;;;;;18.33;54.19;101074.25;5075351;28;46218;-79
2023/05/10 12:31:07;;;;;;;;;4.75;3.00;;;;;18.17;54.89;101068.19;5074816;28;45347;-80
2023/05/10 12:33:43;;;;;;;;;4.50;4.25;;;;;18.06;54.17;101063.53;5075280;28;45520;-79
2023/05/10 12:36:10;;;;;;;;;6.50;4.00;;;;;17.78;55.28;101067.34;5073676;28;45413;-78
2023/05/10 12:38:38;;;;;;;;;3.50;3.00;;;;;17.91;56.16;101078.22;5070943;28;47286;-78
2023/05/10 12:41:06;;;;;;;;;3.50;3.50;;;;;18.03;56.63;101065.63;5069637;28;45391;-79
2023/05/10 12:43:33;;;;;;;;;4.25;3.00;;;;;18.61;55.98;101070.41;5054327;28;45489;-80
2023/05/10 12:45:58;;;;;;;;;6.50;4.75;;;;;18.82;55.91;101060.66;5054257;28;45321;-79
2023/05/10 12:48:24;;;;;;;;;4.75;4.75;;;;;19.01;54.15;101040.25;5053762;28;45344;-79
2023/05/10 12:50:49;;;;;;;;;3.50;3.50;;;;;19.49;53.41;101062.78;5054703;28;45381;-81
2023/05/10 12:53:15;;;;;;;;;6.00;4.50;;;;;19.42;53.37;101042.47;5066312;28;45280;-80
2023/05/10 12:55:43;;;;;;;;;3.00;3.00;;;;;19.75;53.79;101060.75;5056374;28;45401;-78
2023/05/10 12:58:08;;;;;;;;;4.00;4.00;;;;;19.75;54.19;101049.84;5056035;28;45451;-79
2023/05/10 13:00:33;;;;;;;;;5.25;2.50;;;;;19.68;52.21;101054.94;5055110;28;45484;-76
2023/05/10 13:02:59;;;;;;;;;4.25;3.50;;;;;19.60;53.12;101055.53;5055216;28;45421;-77
2023/05/10 13:05:24;;;;;;;;;4.25;4.25;;;;;19.53;51.88;101053.41;5054161;28;45646;-78
2023/05/10 13:07:49;;;;;;;;;4.50;3.25;;;;;20.23;52.14;101058.69;5054612;28;45375;-80
2023/05/10 13:10:16;;;;;;;;;3.50;3.50;;;;;20.50;47.02;101042.81;5054345;28;45181;-78
2023/05/10 13:12:41;;;;;;;;;5.00;3.00;;;;;21.13;44.01;101057.50;5054551;28;45358;-80
2023/05/10 13:15:07;;;;;;;;;5.75;3.50;;;;;21.47;41.80;101056.38;5054536;28;45292;-78
2023/05/10 13:17:33;;;;;;;;;2.75;2.75;;;;;21.86;42.69;101037.53;5053607;28;46869;-80
2023/05/10 13:19:59;;;;;;;;;4.50;4.50;;;;;22.17;42.35;101039.28;5054701;28;45309;-79
2023/05/10 13:22:25;;;;;;;;;2.75;2.00;;;;;22.32;41.46;101044.34;5053417;28;45377;-80
2023/05/10 13:24:50;;;;;;;;;5.25;4.50;;;;;22.75;42.65;101049.53;5054584;28;45604;-79
2023/05/10 13:27:15;;;;;;;;;3.75;3.75;;;;;23.22;41.49;101061.53;5054395;28;46297;-78
2023/05/10 13:29:41;;;;;;;;;4.25;3.75;;;;;23.39;40.72;101041.66;5053846;28;45205;-79
2023/05/10 13:32:06;;;;;;;;;3.25;3.00;;;;;23.77;39.73;101040.75;5054258;28;45185;-79
2023/05/10 13:34:32;;;;;;;;;4.75;4.75;;;;;23.60;39.38;101025.09;5067247;28;45615;-79
2023/05/10 13:36:57;;;;;;;;;3.75;3.75;;;;;23.31;38.94;101030.56;5074206;28;46704;-79
2023/05/10 13:39:22;;;;;;;;;7.00;4.00;;;;;23.00;41.43;101025.25;5056485;28;45299;-79
2023/05/10 13:41:48;;;;;;;;;4.50;4.25;;;;;23.33;40.48;101036.75;5062797;28;45391;-78
2023/05/10 13:44:15;;;;;;;;;4.00;2.50;;;;;23.93;38.61;101040.13;5053949;28;45322;-78
2023/05/10 13:46:42;;;;;;;;;3.75;2.00;;;;;24.58;38.12;101009.00;5053893;28;45458;-80
2023/05/10 13:49:08;;;;;;;;;5.00;3.50;;;;;25.23;34.99;101001.44;5053768;28;45596;-80
2023/05/10 13:51:34;;;;;;;;;2.75;2.75;;;;;25.47;34.38;101031.81;5054157;28;45343;-79
2023/05/10 13:53:59;;;;;;;;;3.00;3.00;;;;;25.40;34.22;101044.44;5054046;28;45571;-79
2023/05/10 13:56:25;;;;;;;;;2.50;0.75;;;;;25.48;33.61;101025.31;5054054;28;53226;-79
2023/05/10 13:58:51;;;;;;;;;4.25;4.00;;;;;26.05;34.40;101025.69;5054504;28;45402;-80
2023/05/10 14:01:16;;;;;;;;;5.50;4.00;;;;;26.40;33.39;101021.94;5077923;28;45261;-80
2023/05/10 14:03:41;;;;;;;;;4.00;4.00;;;;;26.65;33.16;101014.63;5076077;28;45535;-80
2023/05/10 14:06:07;;;;;;;;;3.00;2.25;;;;;27.35;33.31;101004.97;5077725;28;46184;-78
2023/05/10 14:08:34;;;;;;;;;4.00;2.50;;;;;28.18;31.88;101023.97;5077310;28;45471;-81
2023/05/10 14:10:59;;;;;;;;;3.50;3.50;;;;;28.49;30.05;101019.38;5077605;28;45314;-79
2023/05/10 14:13:25;;;;;;;;;3.50;3.50;;;;;28.36;28.71;100998.91;5077298;28;45366;-80
2023/05/10 14:15:51;;;;;;;;;2.00;2.00;;;;;28.62;28.20;101013.25;5059112;28;48337;-80
2023/05/10 14:18:16;;;;;;;;;5.00;2.00;;;;;28.53;28.69;101012.44;5077405;28;45757;-79
2023/05/10 14:20:41;;;;;;;;;2.00;2.00;;;;;28.75;27.68;101015.44;5077782;28;45371;-79
2023/05/10 14:23:07;;;;;;;;;5.00;3.50;;;;;28.82;27.64;101003.53;5077184;28;45358;-79
2023/05/10 14:25:33;;;;;;;;;5.25;2.75;;;;;28.96;28.12;101004.63;5077345;28;45458;-78
2023/05/10 14:27:58;;;;;;;;;3.25;3.00;;;;;29.41;27.56;100989.13;5078330;28;45678;-78
2023/05/10 14:30:24;;;;;;;;;3.25;2.00;;;;;29.47;27.74;100994.75;5077875;28;45865;-80
2023/05/10 14:32:49;;;;;;;;;4.25;1.75;;;;;28.98;28.51;101002.56;5073009;27;45386;-78
2023/05/10 14:35:14;;;;;;;;;1.67;0.00;;;;;28.27;27.14;101016.53;5076304;28;46853;-78
2023/05/10 14:37:40;;;;;;;;;2.00;2.00;;;;;27.36;28.74;100984.66;5043371;28;45473;-81
2023/05/10 14:40:06;;;;;;;;;2.25;2.25;;;;;26.64;29.86;101013.78;5057970;28;45337;-80
2023/05/10 14:42:31;;;;;;;;;3.25;2.00;;;;;25.97;31.71;101010.03;5058307;28;45352;-80
2023/05/10 14:44:57;;;;;;;;;1.00;1.00;;;;;25.72;31.29;101010.91;5055949;28;45441;-78
2023/05/10 14:47:22;;;;;;;;;2.75;1.75;;;;;25.65;31.57;101012.59;5056489;28;45486;-79
2023/05/10 14:49:47;;;;;;;;;1.75;1.00;;;;;25.74;30.76;101010.75;5056625;28;52085;-80
2023/05/10 14:52:14;;;;;;;;;1.00;1.00;;;;;25.74;31.16;101006.13;5037844;28;60250;-79
2023/05/10 14:54:40;;;;;;;;;3.00;1.00;;;;;25.01;31.87;101000.00;5057533;28;45264;-80
2023/05/10 14:57:06;;;;;;;;;2.00;2.00;;;;;24.36;33.73;101004.78;5038969;28;45443;-80
2023/05/10 14:59:31;;;;;;;;;2.25;2.25;;;;;23.79;34.80;101010.47;5057675;28;45285;-78
2023/05/10 15:01:57;;;;;;;;;3.50;3.50;;;;;23.48;35.73;101015.28;5077093;28;45397;-80
2023/05/10 15:04:22;;;;;;;;;5.25;2.00;;;;;23.05;37.14;101013.03;5077138;28;45379;-79
2023/05/10 15:06:48;;;;;;;;;3.00;3.00;;;;;22.78;37.39;101016.47;5076961;28;45381;-79
2023/05/10 15:09:13;;;;;;;;;3.00;3.00;;;;;22.42;37.75;101013.34;5072873;28;45384;-79
2023/05/10 15:11:38;;;;;;;;;1.50;1.50;;;;;22.31;37.24;101020.78;5075750;28;45554;-78
2023/05/10 15:14:04;;;;;;;;;3.50;3.50;;;;;22.43;37.29;101006.88;5075012;28;46259;-78
2023/05/10 15:16:29;;;;;;;;;3.00;2.00;;;;;22.74;36.76;101004.03;5068863;28;45477;-80
2023/05/10 15:18:54;;;;;;;;;2.25;2.00;;;;;23.41;36.25;101009.53;5067424;28;45690;-79
2023/05/10 15:21:20;;;;;;;;;3.75;3.75;;;;;23.79;35.02;101014.09;5058883;28;45477;-77
2023/05/10 15:23:47;;;;;;;;;1.50;1.50;;;;;24.34;34.06;101009.53;5056084;28;45802;-78
2023/05/10 15:26:12;;;;;;;;;2.00;2.00;;;;;24.81;34.38;101020.38;5055530;28;45194;-80
2023/05/10 15:28:37;;;;;;;;;2.50;2.50;;;;;24.95;33.34;100999.78;5037589;28;45450;-78
2023/05/10 15:31:03;;;;;;;;;4.75;3.75;;;;;24.92;33.85;101006.47;5055256;28;45513;-79
2023/05/10 15:33:28;;;;;;;;;4.00;4.00;;;;;24.55;34.27;101022.13;5059694;28;46313;-81
2023/05/10 15:35:54;;;;;;;;;2.25;1.50;;;;;23.95;33.72;101022.53;5075902;28;46395;-79
2023/05/10 15:38:19;;;;;;;;;1.75;1.75;;;;;23.48;34.14;101034.44;5076662;28;45232;-80
2023/05/10 15:40:45;;;;;;;;;0.50;0.50;;;;;22.89;34.11;101028.09;5072631;28;45619;-79
2023/05/10 15:43:10;;;;;;;;;1.50;1.50;;;;;22.39;35.21;101021.81;5065626;28;46087;-80
2023/05/10 15:45:36;;;;;;;;;2.00;2.00;;;;;22.05;36.56;101020.38;5075923;28;45413;-78
2023/05/10 15:48:01;;;;;;;;;3.00;3.00;;;;;21.80;37.00;101032.59;5058049;28;45623;-78
2023/05/10 15:50:27;;;;;;;;;3.25;2.50;;;;;21.61;37.99;101043.38;5070124;28;45216;-78
2023/05/10 15:52:52;;;;;;;;;5.75;3.25;;;;;21.44;38.47;101050.31;5055687;28;45527;-80
2023/05/10 15:55:19;;;;;;;;;2.50;2.50;;;;;21.06;39.46;101029.91;5055273;28;45500;-78